createdAt,value
2018-08-11T00:00:16.335Z,75.13
2018-08-11T00:00:57.693Z,75.42
2018-08-11T00:01:38.592Z,75.42
2018-08-11T00:02:19.334Z,75.13
2018-08-11T00:03:00.081Z,75.13
2018-08-11T00:03:40.846Z,75.62
2018-08-11T00:04:21.621Z,75.62
2018-08-11T00:05:02.490Z,75.23
2018-08-11T00:05:43.653Z,75.23
2018-08-11T00:06:24.537Z,75.42
2018-08-11T00:07:05.324Z,75.52
2018-08-11T00:07:46.025Z,75.42
2018-08-11T00:08:26.829Z,75.52
2018-08-11T00:09:07.649Z,75.32
2018-08-11T00:09:48.375Z,75.42
2018-08-11T00:10:29.108Z,75.13
2018-08-11T00:11:09.867Z,75.03
2018-08-11T00:11:50.696Z,75.13
2018-08-11T00:12:31.563Z,75.52
2018-08-11T00:13:12.299Z,75.42
2018-08-11T00:13:53.192Z,75.23
2018-08-11T00:14:33.917Z,75.23
2018-08-11T00:15:14.741Z,75.23
2018-08-11T00:15:55.575Z,75.32
2018-08-11T00:16:36.387Z,75.03
2018-08-11T00:17:17.208Z,75.03
2018-08-11T00:17:57.929Z,75.32
2018-08-11T00:18:38.761Z,75.23
2018-08-11T00:19:19.602Z,75.23
2018-08-11T00:20:00.372Z,75.13
2018-08-11T00:20:41.107Z,75.23
2018-08-11T00:21:21.943Z,75.42
2018-08-11T00:22:02.755Z,75.23
2018-08-11T00:22:43.563Z,75.23
2018-08-11T00:23:24.466Z,75.52
2018-08-11T00:24:05.183Z,75.13
2018-08-11T00:24:45.925Z,75.42
2018-08-11T00:25:26.683Z,74.93
2018-08-11T00:26:07.483Z,75.42
2018-08-11T00:26:48.366Z,74.93
2018-08-11T00:27:29.107Z,75.42
2018-08-11T00:28:09.880Z,75.58
2018-08-11T00:28:50.831Z,75.42
2018-08-11T00:29:31.631Z,75.19
2018-08-11T00:30:12.443Z,75.13
2018-08-11T00:30:53.212Z,75.23
2018-08-11T00:31:33.997Z,75.23
2018-08-11T00:32:14.788Z,74.93
2018-08-11T00:32:55.490Z,75.42
2018-08-11T00:33:36.198Z,75.62
2018-08-11T00:34:16.953Z,75.23
2018-08-11T00:34:57.779Z,75.32
2018-08-11T00:35:38.599Z,75.62
2018-08-11T00:36:19.373Z,75.23
2018-08-11T00:37:00.136Z,75.03
2018-08-11T00:37:41.024Z,75.03
2018-08-11T00:38:21.844Z,74.93
2018-08-11T00:39:02.675Z,74.74
2018-08-11T00:39:43.407Z,74.84
2018-08-11T00:40:24.146Z,74.93
2018-08-11T00:41:04.904Z,74.93
2018-08-11T00:41:45.759Z,74.84
2018-08-11T00:42:26.552Z,74.35
2018-08-11T00:43:07.393Z,74.65
2018-08-11T00:43:48.121Z,74.26
2018-08-11T00:44:28.911Z,74.55
2018-08-11T00:45:09.734Z,74.35
2018-08-11T00:45:50.488Z,74.35
2018-08-11T00:46:31.219Z,74.16
2018-08-11T00:47:11.954Z,74.55
2018-08-11T00:47:52.737Z,74.65
2018-08-11T00:48:33.572Z,74.55
2018-08-11T00:49:14.407Z,74.65
2018-08-11T00:49:55.162Z,74.65
2018-08-11T00:50:35.907Z,74.74
2018-08-11T00:51:16.660Z,74.35
2018-08-11T00:51:57.433Z,74.35
2018-08-11T00:52:38.297Z,74.26
2018-08-11T00:53:18.995Z,74.65
2018-08-11T00:53:59.754Z,74.45
2018-08-11T00:54:40.586Z,74.55
2018-08-11T00:55:21.432Z,74.65
2018-08-11T00:56:02.205Z,74.55
2018-08-11T00:56:42.927Z,74.26
2018-08-11T00:57:23.630Z,74.55
2018-08-11T00:58:04.338Z,74.74
2018-08-11T00:58:45.150Z,74.35
2018-08-11T00:59:25.996Z,74.55
2018-08-11T01:00:06.853Z,74.35
2018-08-11T01:00:47.657Z,74.16
2018-08-11T01:01:28.400Z,74.16
2018-08-11T01:02:09.212Z,74.16
2018-08-11T01:02:49.983Z,74.26
2018-08-11T01:03:30.711Z,74.74
2018-08-11T01:04:11.456Z,74.16
2018-08-11T01:04:52.201Z,73.86
2018-08-11T01:05:33.005Z,74.26
2018-08-11T01:06:13.752Z,74.35
2018-08-11T01:06:54.508Z,74.35
2018-08-11T01:07:35.317Z,74.35
2018-08-11T01:08:16.149Z,73.77
2018-08-11T01:08:57.017Z,74.26
2018-08-11T01:09:37.787Z,74.06
2018-08-11T01:10:18.528Z,73.96
2018-08-11T01:10:59.448Z,73.96
2018-08-11T01:11:40.154Z,73.86
2018-08-11T01:12:20.883Z,74.45
2018-08-11T01:13:01.631Z,73.67
2018-08-11T01:13:42.379Z,73.86
2018-08-11T01:14:23.207Z,73.77
2018-08-11T01:15:04.028Z,73.77
2018-08-11T01:15:44.862Z,73.86
2018-08-11T01:16:25.622Z,73.96
2018-08-11T01:17:06.386Z,74.26
2018-08-11T01:17:47.149Z,74.16
2018-08-11T01:18:28.010Z,74.16
2018-08-11T01:19:08.820Z,73.96
2018-08-11T01:19:49.568Z,73.86
2018-08-11T01:20:30.388Z,73.86
2018-08-11T01:21:11.253Z,73.96
2018-08-11T01:21:52.152Z,73.86
2018-08-11T01:22:32.963Z,73.96
2018-08-11T01:23:13.725Z,73.96
2018-08-11T01:23:54.507Z,74.06
2018-08-11T01:24:35.289Z,74.06
2018-08-11T01:25:16.145Z,74.06
2018-08-11T01:25:56.915Z,73.86
2018-08-11T01:26:37.754Z,73.77
2018-08-11T01:27:18.488Z,73.57
2018-08-11T01:27:59.221Z,73.38
2018-08-11T01:28:40.063Z,73.86
2018-08-11T01:29:20.787Z,73.77
2018-08-11T01:30:01.579Z,73.57
2018-08-11T01:30:42.328Z,73.86
2018-08-11T01:31:23.192Z,73.86
2018-08-11T01:32:03.992Z,73.86
2018-08-11T01:32:44.866Z,73.57
2018-08-11T01:33:25.589Z,73.96
2018-08-11T01:34:06.339Z,73.86
2018-08-11T01:34:47.053Z,73.67
2018-08-11T01:35:27.800Z,73.67
2018-08-11T01:36:08.624Z,73.67
2018-08-11T01:36:49.350Z,73.67
2018-08-11T01:37:30.139Z,73.86
2018-08-11T01:38:10.966Z,73.86
2018-08-11T01:38:51.788Z,73.96
2018-08-11T01:39:33.271Z,73.57
2018-08-11T01:40:14.037Z,73.86
2018-08-11T01:40:54.845Z,73.67
2018-08-11T01:41:35.686Z,73.96
2018-08-11T01:42:16.463Z,73.86
2018-08-11T01:42:57.230Z,73.67
2018-08-11T01:43:38.013Z,73.67
2018-08-11T01:44:18.840Z,73.67
2018-08-11T01:44:59.677Z,73.67
2018-08-11T01:45:40.437Z,73.57
2018-08-11T01:46:21.216Z,73.57
2018-08-11T01:47:02.052Z,73.57
2018-08-11T01:47:42.836Z,73.67
2018-08-11T01:48:23.686Z,73.67
2018-08-11T01:49:04.405Z,73.57
2018-08-11T01:49:45.095Z,73.77
2018-08-11T01:50:25.814Z,73.67
2018-08-11T01:51:06.671Z,73.77
2018-08-11T01:51:47.490Z,73.77
2018-08-11T01:52:28.327Z,73.67
2018-08-11T01:53:09.081Z,73.77
2018-08-11T01:53:49.842Z,73.67
2018-08-11T01:54:30.742Z,73.86
2018-08-11T01:55:11.539Z,73.86
2018-08-11T01:55:52.266Z,73.86
2018-08-11T01:56:33.053Z,73.67
2018-08-11T01:57:13.832Z,73.47
2018-08-11T01:57:54.682Z,73.77
2018-08-11T01:58:35.479Z,73.77
2018-08-11T01:59:16.215Z,73.47
2018-08-11T01:59:57.005Z,73.77
2018-08-11T02:00:37.818Z,73.96
2018-08-11T02:01:18.658Z,73.77
2018-08-11T02:01:59.407Z,73.67
2018-08-11T02:02:40.168Z,73.77
2018-08-11T02:03:20.993Z,73.86
2018-08-11T02:04:01.792Z,73.67
2018-08-11T02:04:42.564Z,73.77
2018-08-11T02:05:23.316Z,73.96
2018-08-11T02:06:04.101Z,73.77
2018-08-11T02:06:45.026Z,73.67
2018-08-11T02:07:25.803Z,73.86
2018-08-11T02:08:06.602Z,73.77
2018-08-11T02:08:47.314Z,73.86
2018-08-11T02:09:28.026Z,73.67
2018-08-11T02:10:08.783Z,73.77
2018-08-11T02:10:49.580Z,73.77
2018-08-11T02:11:30.348Z,73.67
2018-08-11T02:12:11.122Z,73.67
2018-08-11T02:12:51.956Z,73.77
2018-08-11T02:13:32.763Z,73.77
2018-08-11T02:14:13.581Z,73.67
2018-08-11T02:14:54.377Z,73.77
2018-08-11T02:15:35.096Z,73.67
2018-08-11T02:16:15.901Z,73.86
2018-08-11T02:16:56.715Z,73.96
2018-08-11T02:17:37.470Z,73.38
2018-08-11T02:18:18.204Z,73.77
2018-08-11T02:18:58.964Z,73.47
2018-08-11T02:19:39.847Z,74.35
2018-08-11T02:20:20.582Z,73.38
2018-08-11T02:21:01.288Z,73.57
2018-08-11T02:21:42.079Z,73.67
2018-08-11T02:22:22.905Z,73.67
2018-08-11T02:23:03.744Z,73.86
2018-08-11T02:23:44.416Z,73.77
2018-08-11T02:24:25.173Z,73.67
2018-08-11T02:25:05.891Z,73.86
2018-08-11T02:25:46.726Z,73.67
2018-08-11T02:26:27.614Z,73.77
2018-08-11T02:27:08.432Z,73.77
2018-08-11T02:27:49.230Z,73.67
2018-08-11T02:28:29.979Z,74.06
2018-08-11T02:29:10.858Z,73.86
2018-08-11T02:29:51.659Z,73.77
2018-08-11T02:30:32.405Z,73.57
2018-08-11T02:31:13.097Z,73.96
2018-08-11T02:31:53.860Z,73.67
2018-08-11T02:32:34.699Z,74.16
2018-08-11T02:33:15.636Z,73.86
2018-08-11T02:33:56.428Z,73.86
2018-08-11T02:34:37.197Z,74.26
2018-08-11T02:35:17.956Z,73.96
2018-08-11T02:35:58.673Z,74.06
2018-08-11T02:36:39.447Z,73.47
2018-08-11T02:37:20.284Z,74.06
2018-08-11T02:38:01.049Z,74.16
2018-08-11T02:38:41.843Z,74.16
2018-08-11T02:39:22.653Z,73.96
2018-08-11T02:40:03.416Z,73.67
2018-08-11T02:40:44.249Z,73.86
2018-08-11T02:41:25.044Z,73.96
2018-08-11T02:42:05.819Z,73.96
2018-08-11T02:42:46.548Z,73.77
2018-08-11T02:43:27.412Z,73.77
2018-08-11T02:44:08.252Z,73.28
2018-08-11T02:44:49.088Z,73.77
2018-08-11T02:45:29.829Z,73.28
2018-08-11T02:46:10.568Z,73.86
2018-08-11T02:46:51.422Z,73.77
2018-08-11T02:47:32.239Z,73.96
2018-08-11T02:48:13.012Z,74.16
2018-08-11T02:48:53.781Z,74.16
2018-08-11T02:49:34.577Z,73.96
2018-08-11T02:50:15.407Z,73.96
2018-08-11T02:50:56.129Z,73.77
2018-08-11T02:51:36.902Z,73.67
2018-08-11T02:52:17.731Z,74.35
2018-08-11T02:52:58.513Z,73.77
2018-08-11T02:53:39.333Z,74.74
2018-08-11T02:54:20.089Z,73.86
2018-08-11T02:55:00.956Z,73.83
2018-08-11T02:55:41.786Z,73.83
2018-08-11T02:56:22.503Z,74.45
2018-08-11T02:57:03.236Z,74.16
2018-08-11T02:57:43.993Z,74.16
2018-08-11T02:58:24.822Z,74.26
2018-08-11T02:59:05.716Z,74.41
2018-08-11T02:59:46.570Z,74.51
2018-08-11T03:00:27.374Z,74.74
2018-08-11T03:01:08.192Z,74.74
2018-08-11T03:01:48.927Z,74.41
2018-08-11T03:02:29.715Z,74.41
2018-08-11T03:03:10.512Z,74.22
2018-08-11T03:03:51.243Z,74.61
2018-08-11T03:04:31.995Z,74.41
2018-08-11T03:05:12.867Z,74.61
2018-08-11T03:05:53.776Z,74.61
2018-08-11T03:06:34.621Z,74.22
2018-08-11T03:07:15.312Z,74.32
2018-08-11T03:07:56.054Z,74.51
2018-08-11T03:08:36.800Z,74.61
2018-08-11T03:09:17.643Z,74.22
2018-08-11T03:09:58.520Z,74.61
2018-08-11T03:10:39.346Z,74.41
2018-08-11T03:11:20.113Z,74.41
2018-08-11T03:12:00.860Z,74.51
2018-08-11T03:12:41.663Z,74.61
2018-08-11T03:13:22.490Z,74.02
2018-08-11T03:14:03.247Z,74.22
2018-08-11T03:14:44.059Z,74.99
2018-08-11T03:15:24.823Z,74.99
2018-08-11T03:16:05.617Z,74.8
2018-08-11T03:16:46.491Z,74.9
2018-08-11T03:17:27.289Z,74.9
2018-08-11T03:18:07.999Z,75.09
2018-08-11T03:18:48.722Z,74.8
2018-08-11T03:19:29.489Z,74.71
2018-08-11T03:20:10.339Z,74.99
2018-08-11T03:20:51.135Z,75.09
2018-08-11T03:21:31.863Z,74.55
2018-08-11T03:22:12.666Z,74.65
2018-08-11T03:22:53.473Z,74.45
2018-08-11T03:23:34.317Z,74.65
2018-08-11T03:24:15.129Z,74.06
2018-08-11T03:24:55.860Z,74.32
2018-08-11T03:25:36.667Z,74.41
2018-08-11T03:26:17.432Z,74.51
2018-08-11T03:26:58.213Z,74.32
2018-08-11T03:27:38.956Z,74.61
2018-08-11T03:28:19.753Z,74.41
2018-08-11T03:29:00.584Z,74.22
2018-08-11T03:29:41.337Z,74.8
2018-08-11T03:30:22.072Z,74.32
2018-08-11T03:31:02.899Z,74.22
2018-08-11T03:31:43.713Z,74.32
2018-08-11T03:32:24.514Z,74.51
2018-08-11T03:33:05.303Z,75.09
2018-08-11T03:33:46.019Z,75.09
2018-08-11T03:34:26.748Z,74.61
2018-08-11T03:35:07.647Z,74.61
2018-08-11T03:35:48.432Z,74.51
2018-08-11T03:36:29.309Z,74.71
2018-08-11T03:37:10.099Z,74.51
2018-08-11T03:37:50.832Z,74.22
2018-08-11T03:38:31.647Z,74.51
2018-08-11T03:39:12.492Z,74.32
2018-08-11T03:39:53.191Z,74.61
2018-08-11T03:40:33.921Z,74.32
2018-08-11T03:41:14.650Z,74.22
2018-08-11T03:41:55.478Z,74.32
2018-08-11T03:42:36.249Z,74.51
2018-08-11T03:43:17.038Z,74.9
2018-08-11T03:43:57.803Z,74.99
2018-08-11T03:44:38.674Z,75.09
2018-08-11T03:45:19.404Z,75.09
2018-08-11T03:46:00.290Z,75.09
2018-08-11T03:46:41.053Z,74.9
2018-08-11T03:47:21.820Z,74.99
2018-08-11T03:48:02.668Z,74.9
2018-08-11T03:48:43.472Z,74.99
2018-08-11T03:49:24.353Z,74.32
2018-08-11T03:50:05.234Z,74.61
2018-08-11T03:50:45.945Z,74.51
2018-08-11T03:51:26.723Z,74.71
2018-08-11T03:52:07.459Z,74.22
2018-08-11T03:52:48.315Z,74.61
2018-08-11T03:53:29.149Z,74.9
2018-08-11T03:54:09.959Z,74.61
2018-08-11T03:54:50.747Z,74.9
2018-08-11T03:55:31.494Z,74.41
2018-08-11T03:56:12.391Z,74.32
2018-08-11T03:56:53.185Z,74.99
2018-08-11T03:57:33.988Z,74.99
2018-08-11T03:58:14.731Z,74.9
2018-08-11T03:58:55.538Z,74.61
2018-08-11T03:59:36.351Z,74.51
2018-08-11T04:00:17.120Z,74.51
2018-08-11T04:00:57.871Z,74.99
2018-08-11T04:01:38.716Z,74.41
2018-08-11T04:02:19.612Z,75.05
2018-08-11T04:03:00.403Z,74.9
2018-08-11T04:03:41.164Z,74.99
2018-08-11T04:04:21.977Z,74.41
2018-08-11T04:05:02.768Z,74.22
2018-08-11T04:05:43.546Z,74.41
2018-08-11T04:06:24.289Z,74.51
2018-08-11T04:07:05.029Z,74.22
2018-08-11T04:07:45.838Z,74.41
2018-08-11T04:08:26.637Z,74.22
2018-08-11T04:09:07.491Z,74.51
2018-08-11T04:09:48.268Z,74.51
2018-08-11T04:10:29.001Z,74.61
2018-08-11T04:11:09.781Z,74.51
2018-08-11T04:11:50.538Z,74.41
2018-08-11T04:12:31.431Z,74.71
2018-08-11T04:13:12.160Z,74.71
2018-08-11T04:13:52.951Z,74.51
2018-08-11T04:14:33.755Z,74.41
2018-08-11T04:15:14.606Z,74.32
2018-08-11T04:15:55.379Z,74.32
2018-08-11T04:16:36.129Z,74.51
2018-08-11T04:17:16.883Z,74.41
2018-08-11T04:17:57.773Z,74.71
2018-08-11T04:18:38.535Z,74.61
2018-08-11T04:19:19.250Z,74.61
2018-08-11T04:20:00.008Z,74.51
2018-08-11T04:20:40.726Z,74.51
2018-08-11T04:21:21.624Z,74.51
2018-08-11T04:22:02.398Z,74.41
2018-08-11T04:22:43.146Z,74.61
2018-08-11T04:23:23.987Z,74.12
2018-08-11T04:24:04.824Z,74.32
2018-08-11T04:24:45.646Z,74.51
2018-08-11T04:25:26.404Z,74.32
2018-08-11T04:26:07.136Z,74.71
2018-08-11T04:26:47.866Z,74.22
2018-08-11T04:27:28.655Z,74.22
2018-08-11T04:28:09.470Z,74.61
2018-08-11T04:28:50.303Z,74.71
2018-08-11T04:29:31.049Z,74.51
2018-08-11T04:30:11.764Z,74.51
2018-08-11T04:30:52.612Z,74.61
2018-08-11T04:31:33.425Z,74.41
2018-08-11T04:32:14.195Z,74.61
2018-08-11T04:32:54.983Z,74.61
2018-08-11T04:33:35.718Z,74.61
2018-08-11T04:34:16.573Z,74.71
2018-08-11T04:34:57.325Z,74.51
2018-08-11T04:35:38.121Z,74.51
2018-08-11T04:36:18.941Z,74.71
2018-08-11T04:36:59.754Z,74.41
2018-08-11T04:37:40.570Z,74.41
2018-08-11T04:38:21.331Z,74.61
2018-08-11T04:39:02.014Z,74.61
2018-08-11T04:39:42.873Z,74.71
2018-08-11T04:40:23.647Z,74.41
2018-08-11T04:41:04.401Z,74.41
2018-08-11T04:41:45.101Z,74.41
2018-08-11T04:42:25.862Z,74.51
2018-08-11T04:43:06.687Z,74.41
2018-08-11T04:43:47.547Z,74.41
2018-08-11T04:44:28.363Z,74.51
2018-08-11T04:45:09.079Z,74.41
2018-08-11T04:45:49.801Z,74.41
2018-08-11T04:46:30.552Z,74.32
2018-08-11T04:47:11.378Z,74.51
2018-08-11T04:47:52.126Z,74.41
2018-08-11T04:48:32.892Z,74.61
2018-08-11T04:49:13.733Z,74.61
2018-08-11T04:49:54.556Z,74.71
2018-08-11T04:50:35.353Z,74.71
2018-08-11T04:51:16.161Z,74.51
2018-08-11T04:51:56.901Z,74.51
2018-08-11T04:52:37.627Z,74.61
2018-08-11T04:53:18.410Z,74.51
2018-08-11T04:53:59.241Z,74.22
2018-08-11T04:54:40.045Z,74.71
2018-08-11T04:55:20.897Z,74.61
2018-08-11T04:56:01.649Z,74.71
2018-08-11T04:56:42.434Z,74.99
2018-08-11T04:57:23.281Z,75.29
2018-08-11T04:58:04.036Z,75.09
2018-08-11T04:58:44.766Z,74.9
2018-08-11T04:59:25.489Z,74.9
2018-08-11T05:00:06.286Z,75.38
2018-08-11T05:00:47.109Z,75.09
2018-08-11T05:01:27.946Z,74.8
2018-08-11T05:02:08.694Z,75.29
2018-08-11T05:02:49.472Z,75.68
2018-08-11T05:03:30.223Z,75.48
2018-08-11T05:04:10.973Z,75.48
2018-08-11T05:04:51.797Z,75.58
2018-08-11T05:05:32.584Z,75.74
2018-08-11T05:06:13.305Z,76.42
2018-08-11T05:06:54.130Z,75.74
2018-08-11T05:07:34.910Z,76.35
2018-08-11T05:08:15.736Z,76.12
2018-08-11T05:08:56.480Z,76.03
2018-08-11T05:09:37.242Z,76.45
2018-08-11T05:10:18.043Z,75.68
2018-08-11T05:10:58.778Z,76.42
2018-08-11T05:11:39.517Z,76.32
2018-08-11T05:12:20.259Z,75.25
2018-08-11T05:13:01.003Z,75.74
2018-08-11T05:13:41.864Z,75.93
2018-08-11T05:14:22.621Z,76.26
2018-08-11T05:15:03.393Z,76.03
2018-08-11T05:15:44.196Z,76.22
2018-08-11T05:16:24.994Z,75.25
2018-08-11T05:17:05.809Z,76.03
2018-08-11T05:17:46.508Z,76.12
2018-08-11T05:18:27.250Z,76.32
2018-08-11T05:19:07.959Z,75.54
2018-08-11T05:19:48.845Z,76.03
2018-08-11T05:20:29.626Z,76.03
2018-08-11T05:21:10.463Z,76.12
2018-08-11T05:21:51.256Z,75.74
2018-08-11T05:22:31.974Z,76.22
2018-08-11T05:23:12.821Z,77
2018-08-11T05:23:53.593Z,76.42
2018-08-11T05:24:34.346Z,76.71
2018-08-11T05:25:15.059Z,76.03
2018-08-11T05:25:55.827Z,76.71
2018-08-11T05:26:36.668Z,76.22
2018-08-11T05:27:17.495Z,76.81
2018-08-11T05:27:58.360Z,76.71
2018-08-11T05:28:39.076Z,76.32
2018-08-11T05:29:19.757Z,77.2
2018-08-11T05:30:00.478Z,76.9
2018-08-11T05:30:41.282Z,77.2
2018-08-11T05:31:22.111Z,76.81
2018-08-11T05:32:02.892Z,76.42
2018-08-11T05:32:43.653Z,76.32
2018-08-11T05:33:24.527Z,76.61
2018-08-11T05:34:05.323Z,76.9
2018-08-11T05:34:46.126Z,76.81
2018-08-11T05:35:26.846Z,76.71
2018-08-11T05:36:07.585Z,76.22
2018-08-11T05:36:48.347Z,76.22
2018-08-11T05:37:29.126Z,77.1
2018-08-11T05:38:09.973Z,77.2
2018-08-11T05:38:50.845Z,76.51
2018-08-11T05:39:31.549Z,76.51
2018-08-11T05:40:12.346Z,76.51
2018-08-11T05:40:53.174Z,76.42
2018-08-11T05:41:33.927Z,76.42
2018-08-11T05:42:14.680Z,76.42
2018-08-11T05:42:55.394Z,76.42
2018-08-11T05:43:36.172Z,76.81
2018-08-11T05:44:17.041Z,76.42
2018-08-11T05:44:57.809Z,76.42
2018-08-11T05:45:38.570Z,77
2018-08-11T05:46:19.375Z,76.22
2018-08-11T05:47:00.213Z,76.42
2018-08-11T05:47:41.015Z,76.32
2018-08-11T05:48:21.761Z,76.61
2018-08-11T05:49:02.561Z,76.12
2018-08-11T05:49:43.427Z,77
2018-08-11T05:50:24.142Z,76.81
2018-08-11T05:51:04.848Z,77
2018-08-11T05:51:45.580Z,76.9
2018-08-11T05:52:26.371Z,77
2018-08-11T05:53:07.247Z,76.61
2018-08-11T05:53:48.018Z,76.81
2018-08-11T05:54:28.842Z,76.32
2018-08-11T05:55:09.597Z,76.81
2018-08-11T05:55:50.324Z,77.1
2018-08-11T05:56:31.091Z,76.22
2018-08-11T05:57:11.931Z,76.32
2018-08-11T05:57:52.682Z,76.71
2018-08-11T05:58:33.436Z,77.1
2018-08-11T05:59:14.239Z,76.22
2018-08-11T05:59:55.078Z,76.32
2018-08-11T06:00:35.960Z,76.61
2018-08-11T06:01:16.716Z,76.94
2018-08-11T06:01:57.499Z,76.51
2018-08-11T06:02:38.237Z,76.12
2018-08-11T06:03:19.064Z,76.81
2018-08-11T06:03:59.936Z,76.51
2018-08-11T06:04:40.683Z,76.12
2018-08-11T06:05:21.513Z,76.22
2018-08-11T06:06:02.244Z,76.12
2018-08-11T06:06:43.014Z,76.55
2018-08-11T06:07:23.856Z,76.51
2018-08-11T06:08:04.636Z,76.94
2018-08-11T06:08:45.414Z,76.55
2018-08-11T06:09:26.183Z,76.07
2018-08-11T06:10:07.040Z,76.07
2018-08-11T06:10:47.890Z,76.45
2018-08-11T06:11:28.736Z,75.97
2018-08-11T06:12:09.516Z,76.35
2018-08-11T06:12:50.227Z,76.45
2018-08-11T06:13:31.001Z,76.07
2018-08-11T06:14:11.781Z,76.26
2018-08-11T06:14:52.582Z,76.07
2018-08-11T06:15:33.313Z,76.17
2018-08-11T06:16:14.097Z,76.26
2018-08-11T06:16:54.915Z,76.35
2018-08-11T06:17:35.695Z,76.26
2018-08-11T06:18:16.522Z,76.17
2018-08-11T06:18:57.232Z,76.17
2018-08-11T06:19:38.048Z,76.26
2018-08-11T06:20:18.837Z,75.97
2018-08-11T06:20:59.621Z,76.07
2018-08-11T06:21:40.369Z,76.26
2018-08-11T06:22:21.111Z,75.58
2018-08-11T06:23:01.901Z,76.26
2018-08-11T06:23:42.808Z,76.26
2018-08-11T06:24:23.564Z,75.97
2018-08-11T06:25:04.344Z,76.26
2018-08-11T06:25:45.146Z,76.17
2018-08-11T06:26:25.933Z,75.78
2018-08-11T06:27:06.722Z,76.26
2018-08-11T06:27:47.452Z,75.13
2018-08-11T06:28:28.182Z,75.42
2018-08-11T06:29:08.996Z,75.32
2018-08-11T06:29:49.871Z,75.13
2018-08-11T06:30:30.721Z,75.03
2018-08-11T06:31:11.559Z,74.74
2018-08-11T06:31:52.358Z,74.74
2018-08-11T06:32:33.004Z,74.35
2018-08-11T06:33:13.850Z,75.16
2018-08-11T06:33:54.527Z,74.58
2018-08-11T06:34:35.270Z,74.49
2018-08-11T06:35:16.073Z,73.9
2018-08-11T06:35:56.916Z,74
2018-08-11T06:36:37.744Z,74
2018-08-11T06:37:18.454Z,74
2018-08-11T06:37:59.240Z,73.51
2018-08-11T06:38:40.078Z,73.9
2018-08-11T06:39:20.916Z,73.41
2018-08-11T06:40:01.717Z,74.1
2018-08-11T06:40:42.463Z,74.19
2018-08-11T06:41:23.206Z,74.1
2018-08-11T06:42:04.046Z,74
2018-08-11T06:42:44.828Z,74
2018-08-11T06:43:25.549Z,74.49
2018-08-11T06:44:06.273Z,74.93
2018-08-11T06:44:47.131Z,74.97
2018-08-11T06:45:27.924Z,74.78
2018-08-11T06:46:08.711Z,74.93
2018-08-11T06:46:49.587Z,75.62
2018-08-11T06:47:30.209Z,75.23
2018-08-11T06:48:10.956Z,74.93
2018-08-11T06:48:51.729Z,75.42
2018-08-11T06:49:32.563Z,75.42
2018-08-11T06:50:13.333Z,76.01
2018-08-11T06:50:54.131Z,76.3
2018-08-11T06:51:34.946Z,76.59
2018-08-11T06:52:15.727Z,76.01
2018-08-11T06:52:56.583Z,76.4
2018-08-11T06:53:37.343Z,75.62
2018-08-11T06:54:18.138Z,76.3
2018-08-11T06:54:58.957Z,75.52
2018-08-11T06:55:39.746Z,76.2
2018-08-11T06:56:20.421Z,76.1
2018-08-11T06:57:01.141Z,76.2
2018-08-11T06:57:41.925Z,76.3
2018-08-11T06:58:22.761Z,75.81
2018-08-11T06:59:03.483Z,76.5
2018-08-11T06:59:44.282Z,76.3
2018-08-11T07:00:25.093Z,76.88
2018-08-11T07:01:05.982Z,76.01
2018-08-11T07:01:46.803Z,76.78
2018-08-11T07:02:27.535Z,76.59
2018-08-11T07:03:08.375Z,76.4
2018-08-11T07:03:49.147Z,77.17
2018-08-11T07:04:29.994Z,77.17
2018-08-11T07:05:10.748Z,76.98
2018-08-11T07:05:51.716Z,76.94
2018-08-11T07:06:32.552Z,76.78
2018-08-11T07:07:13.336Z,77.43
2018-08-11T07:07:54.149Z,76.88
2018-08-11T07:08:34.911Z,77.17
2018-08-11T07:09:15.668Z,77.37
2018-08-11T07:09:56.405Z,77.76
2018-08-11T07:10:37.237Z,77.53
2018-08-11T07:11:18.109Z,77.66
2018-08-11T07:11:58.904Z,77.66
2018-08-11T07:12:39.654Z,77.66
2018-08-11T07:13:20.411Z,77.53
2018-08-11T07:14:01.132Z,77.43
2018-08-11T07:14:41.881Z,77.43
2018-08-11T07:15:22.801Z,77.91
2018-08-11T07:16:03.480Z,77.76
2018-08-11T07:16:44.198Z,77.66
2018-08-11T07:17:24.996Z,77.37
2018-08-11T07:18:05.789Z,77.47
2018-08-11T07:18:46.626Z,77.33
2018-08-11T07:19:27.339Z,77.37
2018-08-11T07:20:08.113Z,77.47
2018-08-11T07:20:48.903Z,76.98
2018-08-11T07:21:29.718Z,76.78
2018-08-11T07:22:10.531Z,77.27
2018-08-11T07:22:51.341Z,77.66
2018-08-11T07:23:32.135Z,77.56
2018-08-11T07:24:12.891Z,76.88
2018-08-11T07:24:53.772Z,76.88
2018-08-11T07:25:34.561Z,76.78
2018-08-11T07:26:15.881Z,76.88
2018-08-11T07:26:56.789Z,76.68
2018-08-11T07:27:37.683Z,76.68
2018-08-11T07:28:18.662Z,76.68
2018-08-11T07:28:59.470Z,77.27
2018-08-11T07:29:40.291Z,76.88
2018-08-11T07:30:21.253Z,77.47
2018-08-11T07:31:02.017Z,76.98
2018-08-11T07:31:42.957Z,77.17
2018-08-11T07:32:23.730Z,76.68
2018-08-11T07:33:04.499Z,77.17
2018-08-11T07:33:45.418Z,76.5
2018-08-11T07:34:26.193Z,76.68
2018-08-11T07:35:06.997Z,76.68
2018-08-11T07:35:47.732Z,76.63
2018-08-11T07:36:28.682Z,76.34
2018-08-11T07:37:09.487Z,76.1
2018-08-11T07:37:50.268Z,75.56
2018-08-11T07:38:31.155Z,76.24
2018-08-11T07:39:11.922Z,76.14
2018-08-11T07:39:52.732Z,75.75
2018-08-11T07:40:33.636Z,75.46
2018-08-11T07:41:14.589Z,75.46
2018-08-11T07:41:55.451Z,75.46
2018-08-11T07:42:36.262Z,75.56
2018-08-11T07:43:17.075Z,75.65
2018-08-11T07:43:57.950Z,75.65
2018-08-11T07:44:38.770Z,75.65
2018-08-11T07:45:19.763Z,75.56
2018-08-11T07:46:00.451Z,75.16
2018-08-11T07:46:41.244Z,75.65
2018-08-11T07:47:22.220Z,75.26
2018-08-11T07:48:03.224Z,75.36
2018-08-11T07:48:43.987Z,75.36
2018-08-11T07:49:24.830Z,75.46
2018-08-11T07:50:05.856Z,75.56
2018-08-11T07:50:46.546Z,75.75
2018-08-11T07:51:27.509Z,75.26
2018-08-11T07:52:08.254Z,75.65
2018-08-11T07:52:48.996Z,75.69
2018-08-11T07:53:29.754Z,75.3
2018-08-11T07:54:10.613Z,75.4
2018-08-11T07:54:52.167Z,75.49
2018-08-11T07:55:33.049Z,75.24
2018-08-11T07:56:14.274Z,74.56
2018-08-11T07:56:55.057Z,74.56
2018-08-11T07:57:35.839Z,74.37
2018-08-11T07:58:16.641Z,75.01
2018-08-11T07:58:57.559Z,75.01
2018-08-11T07:59:38.343Z,75.34
2018-08-11T08:00:19.074Z,75.04
2018-08-11T08:01:00.051Z,75.24
2018-08-11T08:01:41.205Z,73.82
2018-08-11T08:02:22.040Z,73.82
2018-08-11T08:03:02.854Z,73.52
2018-08-11T08:03:43.977Z,73.62
2018-08-11T08:04:25.484Z,73.43
2018-08-11T08:05:05.897Z,73.52
2018-08-11T08:05:47.054Z,72.88
2018-08-11T08:06:27.911Z,72.74
2018-08-11T08:07:08.668Z,72.58
2018-08-11T08:07:50.077Z,72.16
2018-08-11T08:08:30.589Z,72.45
2018-08-11T08:09:11.366Z,72.45
2018-08-11T08:09:52.551Z,72.61
2018-08-11T08:10:33.514Z,73.29
2018-08-11T08:11:14.828Z,73.58
2018-08-11T08:11:55.562Z,72.9
2018-08-11T08:12:36.306Z,73.55
2018-08-11T08:13:17.107Z,73.65
2018-08-11T08:13:57.944Z,73.25
2018-08-11T08:14:38.809Z,73.35
2018-08-11T08:15:19.936Z,73.35
2018-08-11T08:16:00.749Z,73.35
2018-08-11T08:16:41.486Z,73.35
2018-08-11T08:17:22.427Z,74.07
2018-08-11T08:18:03.201Z,73.1
2018-08-11T08:18:44.008Z,72.84
2018-08-11T08:19:24.849Z,72.74
2018-08-11T08:20:05.653Z,71.9
2018-08-11T08:20:46.507Z,71.41
2018-08-11T08:21:27.377Z,70.92
2018-08-11T08:22:08.269Z,70.28
2018-08-11T08:22:49.012Z,69.98
2018-08-11T08:23:30.004Z,69.2
2018-08-11T08:24:10.637Z,69.79
2018-08-11T08:24:51.646Z,69.24
2018-08-11T08:25:32.520Z,69.24
2018-08-11T08:26:13.376Z,68.95
2018-08-11T08:26:54.737Z,68.26
2018-08-11T08:27:35.533Z,67.87
2018-08-11T08:28:16.427Z,67.87
2018-08-11T08:28:57.172Z,67.87
2018-08-11T08:29:37.957Z,67.87
2018-08-11T08:30:18.728Z,68.16
2018-08-11T08:30:59.490Z,68.36
2018-08-11T08:31:40.335Z,68.55
2018-08-11T08:32:21.176Z,67.87
2018-08-11T08:33:02.002Z,67.87
2018-08-11T08:33:42.846Z,68.55
2018-08-11T08:34:23.630Z,67.97
2018-08-11T08:35:04.577Z,68.65
2018-08-11T08:35:45.442Z,67.77
2018-08-11T08:36:26.246Z,67.87
2018-08-11T08:37:07.413Z,68.07
2018-08-11T08:37:48.304Z,68.07
2018-08-11T08:38:29.234Z,68.16
2018-08-11T08:39:10.126Z,68.26
2018-08-11T08:39:50.984Z,68.23
2018-08-11T08:40:32.286Z,67.83
2018-08-11T08:41:12.921Z,68.23
2018-08-11T08:41:53.712Z,68.13
2018-08-11T08:42:34.538Z,68.42
2018-08-11T08:43:15.482Z,68.03
2018-08-11T08:43:56.303Z,68.52
2018-08-11T08:44:37.251Z,68.91
2018-08-11T08:45:18.273Z,69.1
2018-08-11T08:45:59.303Z,68.91
2018-08-11T08:46:40.211Z,69.17
2018-08-11T08:47:21.342Z,69.17